createdAt,value
2018-11-11T00:01:46.179Z,1.50
2018-11-11T00:04:15.850Z,1.60
2018-11-11T00:06:44.882Z,1.50
2018-11-11T00:09:14.115Z,1.40
2018-11-11T00:11:43.397Z,1.40
2018-11-11T00:14:12.785Z,1.30
2018-11-11T00:16:42.017Z,1.30
2018-11-11T00:19:11.147Z,1.40
2018-11-11T00:21:40.468Z,1.30
2018-11-11T00:24:09.411Z,1.40
2018-11-11T00:26:38.886Z,1.80
2018-11-11T00:29:08.364Z,1.60
2018-11-11T00:31:38.141Z,1.30
2018-11-11T00:34:07.502Z,1.70
2018-11-11T00:36:36.886Z,1.90
2018-11-11T00:39:07.978Z,1.70
2018-11-11T00:41:37.406Z,1.80
2018-11-11T00:44:06.668Z,1.70
2018-11-11T00:46:36.012Z,1.80
2018-11-11T00:49:05.309Z,1.80
2018-11-11T00:51:34.507Z,1.80
2018-11-11T00:54:04.143Z,1.80
2018-11-11T00:56:33.413Z,1.70
2018-11-11T00:59:02.895Z,1.70
2018-11-11T01:01:32.322Z,1.60
2018-11-11T01:04:01.594Z,1.50
2018-11-11T01:06:30.838Z,1.50
2018-11-11T01:09:00.099Z,1.40
2018-11-11T01:11:29.448Z,1.40
2018-11-11T01:13:58.916Z,1.30
2018-11-11T01:16:28.183Z,1.20
2018-11-11T01:18:57.592Z,1.30
2018-11-11T01:21:26.768Z,1.30
2018-11-11T01:23:56.415Z,1.10
2018-11-11T01:26:25.461Z,1.10
2018-11-11T01:28:54.640Z,1.10
2018-11-11T01:31:23.884Z,1.00
2018-11-11T01:33:53.305Z,1.10
2018-11-11T01:36:22.867Z,1.00
2018-11-11T01:38:52.136Z,1.00
2018-11-11T01:41:21.355Z,1.00
2018-11-11T01:43:51.120Z,0.90
2018-11-11T01:46:20.724Z,0.90
2018-11-11T01:48:50.128Z,0.90
2018-11-11T01:51:19.516Z,1.00
2018-11-11T01:53:48.904Z,1.00
2018-11-11T01:56:18.392Z,1.00
2018-11-11T01:58:47.635Z,1.00
2018-11-11T02:01:16.865Z,1.00
2018-11-11T02:03:45.817Z,1.00
2018-11-11T02:06:15.447Z,0.90
2018-11-11T02:08:45.125Z,0.90
2018-11-11T02:11:14.283Z,0.90
2018-11-11T02:13:43.581Z,0.70
2018-11-11T02:16:12.800Z,0.80
2018-11-11T02:18:42.184Z,0.80
2018-11-11T02:21:11.707Z,0.70
2018-11-11T02:23:40.884Z,0.70
2018-11-11T02:26:10.257Z,0.70
2018-11-11T02:28:39.533Z,0.80
2018-11-11T02:31:09.055Z,0.70
2018-11-11T02:33:38.384Z,0.90
2018-11-11T02:36:07.943Z,0.90
2018-11-11T02:38:37.225Z,1.00
2018-11-11T02:41:06.837Z,0.90
2018-11-11T02:43:36.327Z,0.80
2018-11-11T02:46:05.876Z,0.90
2018-11-11T02:48:34.992Z,0.80
2018-11-11T02:51:04.328Z,0.70
2018-11-11T02:53:33.419Z,0.80
2018-11-11T02:56:03.001Z,0.80
2018-11-11T02:58:32.249Z,0.70
2018-11-11T03:01:01.308Z,0.80
2018-11-11T03:03:30.554Z,0.90
2018-11-11T03:05:59.704Z,0.90
2018-11-11T03:08:28.957Z,0.90
2018-11-11T03:10:58.280Z,0.80
2018-11-11T03:13:27.840Z,0.80
2018-11-11T03:15:56.968Z,0.70
2018-11-11T03:18:26.125Z,0.80
2018-11-11T03:20:55.271Z,0.90
2018-11-11T03:23:24.445Z,0.80
2018-11-11T03:25:53.632Z,0.80
2018-11-11T03:28:22.975Z,0.90
2018-11-11T03:30:52.316Z,0.90
2018-11-11T03:33:21.708Z,0.70
2018-11-11T03:35:50.996Z,0.80
2018-11-11T03:38:20.537Z,0.70
2018-11-11T03:40:49.661Z,0.80
2018-11-11T03:43:19.108Z,0.70
2018-11-11T03:45:48.331Z,0.80
2018-11-11T03:48:17.408Z,0.80
2018-11-11T03:50:46.484Z,0.90
2018-11-11T03:53:15.513Z,0.90
2018-11-11T03:55:44.686Z,0.90
2018-11-11T03:58:13.985Z,0.90
2018-11-11T04:00:43.153Z,0.90
2018-11-11T04:03:12.341Z,0.80
2018-11-11T04:05:41.917Z,0.90
2018-11-11T04:08:10.970Z,1.00
2018-11-11T04:10:40.218Z,0.90
2018-11-11T04:13:09.441Z,1.00
2018-11-11T04:15:38.869Z,1.10
2018-11-11T04:18:08.297Z,1.10
2018-11-11T04:20:37.433Z,1.20
2018-11-11T04:23:07.039Z,1.20
2018-11-11T04:25:36.384Z,1.10
2018-11-11T04:28:05.521Z,1.20
2018-11-11T04:30:35.581Z,1.00
2018-11-11T04:33:05.046Z,1.00
2018-11-11T04:35:34.384Z,1.10
2018-11-11T04:38:03.673Z,1.10
2018-11-11T04:40:33.040Z,1.00
2018-11-11T04:43:02.219Z,1.00
2018-11-11T04:45:31.461Z,1.00
2018-11-11T04:48:00.739Z,1.00
2018-11-11T04:50:30.492Z,1.10
2018-11-11T04:52:59.627Z,1.10
2018-11-11T04:55:29.186Z,1.10
2018-11-11T04:57:58.712Z,1.00
2018-11-11T05:00:28.069Z,1.00
2018-11-11T05:02:57.140Z,1.10
2018-11-11T05:05:26.429Z,1.10
2018-11-11T05:07:55.920Z,1.40
2018-11-11T05:10:25.328Z,1.40
2018-11-11T05:12:54.484Z,1.40
2018-11-11T05:15:24.157Z,1.40
2018-11-11T05:17:53.496Z,1.50
2018-11-11T05:20:22.844Z,1.40
2018-11-11T05:22:52.336Z,1.50
2018-11-11T05:25:21.635Z,1.40
2018-11-11T05:27:50.830Z,1.40
2018-11-11T05:30:20.041Z,1.40
2018-11-11T05:32:49.140Z,1.40
2018-11-11T05:35:18.419Z,1.40
2018-11-11T05:37:47.732Z,1.30
2018-11-11T05:40:16.837Z,1.40
2018-11-11T05:42:45.768Z,1.30
2018-11-11T05:45:15.848Z,1.40
2018-11-11T05:47:45.166Z,1.40
2018-11-11T05:50:15.500Z,1.50
2018-11-11T05:52:45.932Z,1.50
2018-11-11T05:55:15.433Z,1.50
2018-11-11T05:57:44.692Z,1.40
2018-11-11T06:00:15.182Z,1.40
2018-11-11T06:02:44.813Z,1.40
2018-11-11T06:05:14.852Z,1.40
2018-11-11T06:07:44.325Z,1.30
2018-11-11T06:10:14.910Z,1.30
2018-11-11T06:12:44.430Z,1.30
2018-11-11T06:15:14.501Z,1.30
2018-11-11T06:17:43.828Z,1.30
2018-11-11T06:20:14.214Z,1.30
2018-11-11T06:22:43.946Z,1.30
2018-11-11T06:25:13.284Z,1.30
2018-11-11T06:27:42.862Z,1.30
2018-11-11T06:30:12.922Z,1.30
2018-11-11T06:32:42.770Z,1.40
2018-11-11T06:35:12.281Z,1.40
2018-11-11T06:37:41.728Z,1.50
2018-11-11T06:40:12.209Z,1.50
2018-11-11T06:42:41.933Z,1.50
2018-11-11T06:45:12.580Z,1.50
2018-11-11T06:47:42.464Z,1.50
2018-11-11T06:50:12.784Z,1.60
2018-11-11T06:52:42.672Z,1.70
2018-11-11T06:55:12.193Z,1.70
2018-11-11T06:57:41.709Z,1.70
2018-11-11T07:00:13.124Z,1.90
2018-11-11T07:02:51.806Z,1.90
2018-11-11T07:05:21.015Z,2.00
2018-11-11T07:07:50.407Z,2.10
2018-11-11T07:10:20.121Z,2.00
2018-11-11T07:12:49.417Z,2.10
2018-11-11T07:15:18.641Z,2.20
2018-11-11T07:17:47.696Z,2.30
2018-11-11T07:20:16.948Z,2.40
2018-11-11T07:22:46.418Z,2.60
2018-11-11T07:25:16.029Z,2.70
2018-11-11T07:27:45.534Z,2.90
2018-11-11T07:30:14.732Z,3.20
2018-11-11T07:32:43.980Z,3.30
2018-11-11T07:35:13.108Z,3.50
2018-11-11T07:37:42.324Z,3.60
2018-11-11T07:40:13.552Z,3.80
2018-11-11T07:42:42.827Z,4.00
2018-11-11T07:45:14.731Z,4.30
2018-11-11T07:47:44.055Z,4.50
2018-11-11T07:50:14.542Z,4.90
2018-11-11T07:52:43.743Z,5.00
2018-11-11T07:55:13.287Z,5.30
2018-11-11T07:57:42.744Z,5.50
2018-11-11T08:00:18.017Z,5.60
2018-11-11T08:02:48.275Z,5.80
2018-11-11T08:05:17.487Z,5.90
2018-11-11T08:07:46.750Z,6.00
2018-11-11T08:10:27.070Z,6.10
2018-11-11T08:12:56.283Z,6.40
2018-11-11T08:15:25.582Z,6.60
2018-11-11T08:17:55.154Z,6.80
2018-11-11T08:20:24.370Z,7.10
2018-11-11T08:22:53.484Z,7.20
2018-11-11T08:25:24.465Z,7.40
2018-11-11T08:27:54.089Z,7.80
2018-11-11T08:30:23.515Z,8.20
2018-11-11T08:32:54.533Z,8.80
2018-11-11T08:35:23.913Z,9.00
2018-11-11T08:37:55.122Z,10.40
2018-11-11T08:40:24.477Z,11.30
2018-11-11T08:42:54.094Z,12.20
2018-11-11T08:45:23.321Z,13.10
2018-11-11T08:47:52.804Z,14.10
2018-11-11T08:50:22.142Z,14.50
2018-11-11T08:52:51.467Z,14.90
2018-11-11T08:55:20.918Z,15.00
2018-11-11T08:57:50.123Z,15.20
2018-11-11T09:00:19.343Z,15.50
2018-11-11T09:02:48.849Z,15.70
2018-11-11T09:05:18.221Z,15.90
2018-11-11T09:07:48.689Z,16.30
2018-11-11T09:10:18.141Z,16.30
2018-11-11T09:12:47.625Z,16.90
2018-11-11T09:15:16.872Z,16.90
2018-11-11T09:17:46.233Z,16.60
2018-11-11T09:20:18.513Z,16.90
2018-11-11T09:22:57.852Z,17.40
2018-11-11T09:25:28.052Z,16.90
2018-11-11T09:27:57.880Z,17.00
2018-11-11T09:30:28.722Z,17.10
2018-11-11T09:32:59.799Z,17.10
2018-11-11T09:35:29.323Z,17.20
2018-11-11T09:37:59.916Z,17.80
2018-11-11T09:40:29.940Z,17.80
2018-11-11T09:42:59.364Z,17.90
2018-11-11T09:45:29.012Z,17.60
2018-11-11T09:48:02.814Z,18.50
2018-11-11T09:50:36.706Z,18.20
2018-11-11T09:53:11.294Z,18.80
2018-11-11T09:55:40.964Z,18.70
2018-11-11T09:58:15.819Z,18.70
2018-11-11T10:00:46.704Z,19.40
2018-11-11T10:03:22.447Z,18.90
2018-11-11T10:06:25.151Z,19.20
2018-11-11T10:11:04.086Z,18.80
2018-11-11T10:13:40.012Z,18.50
2018-11-11T10:16:15.195Z,19.20
2018-11-11T10:20:56.391Z,18.10
2018-11-11T10:23:30.898Z,18.40
2018-11-11T10:26:29.896Z,18.30
2018-11-11T10:29:04.727Z,18.50
2018-11-11T10:32:05.096Z,19.40
2018-11-11T10:35:39.711Z,18.90
2018-11-11T10:40:21.117Z,19.10
2018-11-11T10:42:57.879Z,19.00
2018-11-11T10:45:50.775Z,20.20
2018-11-11T10:48:26.039Z,22.00
2018-11-11T10:50:59.945Z,21.40
2018-11-11T10:53:29.279Z,20.30
2018-11-11T10:55:58.481Z,20.30
2018-11-11T10:58:28.480Z,20.20
2018-11-11T11:01:03.291Z,20.20
2018-11-11T11:03:34.279Z,20.00
2018-11-11T11:06:04.185Z,20.10
2018-11-11T11:08:33.447Z,19.90
2018-11-11T11:11:02.764Z,20.10
2018-11-11T11:13:33.490Z,21.20
2018-11-11T11:16:02.892Z,21.20
2018-11-11T11:18:32.528Z,20.20
2018-11-11T11:21:02.223Z,21.30
2018-11-11T11:23:31.533Z,19.80
2018-11-11T11:26:00.643Z,20.70
2018-11-11T11:28:29.793Z,20.10
2018-11-11T11:31:00.046Z,19.80
2018-11-11T11:33:33.338Z,19.80
2018-11-11T11:36:03.004Z,20.60
2018-11-11T11:38:32.065Z,21.90
2018-11-11T11:41:01.421Z,22.40
2018-11-11T11:43:34.368Z,22.20
2018-11-11T11:46:03.776Z,23.10
2018-11-11T11:48:33.276Z,22.70
2018-11-11T11:51:02.623Z,23.60
2018-11-11T11:53:31.896Z,23.60
2018-11-11T11:56:01.020Z,24.30
2018-11-11T11:58:31.389Z,25.70
2018-11-11T12:01:00.601Z,26.60
2018-11-11T12:03:29.694Z,24.70
2018-11-11T12:05:58.546Z,21.00
2018-11-11T12:08:30.627Z,20.00
2018-11-11T12:11:04.990Z,20.00
2018-11-11T12:13:35.983Z,19.40
2018-11-11T12:16:05.878Z,19.20
2018-11-11T12:18:35.544Z,19.30
2018-11-11T12:21:04.991Z,20.50
2018-11-11T12:23:35.683Z,21.80
2018-11-11T12:26:05.272Z,21.80
2018-11-11T12:28:34.491Z,22.90
2018-11-11T12:31:06.143Z,19.90
2018-11-11T12:33:35.821Z,18.70
2018-11-11T12:36:05.803Z,17.80
2018-11-11T12:38:34.894Z,18.10
2018-11-11T12:41:04.651Z,17.60
2018-11-11T12:43:34.123Z,16.90
2018-11-11T12:46:04.168Z,16.70
2018-11-11T12:48:38.164Z,17.00
2018-11-11T12:51:09.902Z,16.60
2018-11-11T12:53:41.684Z,16.90
2018-11-11T12:56:15.150Z,17.20
2018-11-11T12:58:47.609Z,17.50
2018-11-11T13:01:19.928Z,17.50
2018-11-11T13:03:51.187Z,17.70
2018-11-11T13:06:22.386Z,17.60
2018-11-11T13:08:54.790Z,17.10
2018-11-11T13:11:26.135Z,16.60
2018-11-11T13:13:55.562Z,16.70
2018-11-11T13:16:25.008Z,16.50
2018-11-11T13:18:56.545Z,16.30
2018-11-11T13:21:31.529Z,16.30
2018-11-11T13:24:05.636Z,16.00
2018-11-11T13:26:37.667Z,16.30
2018-11-11T13:29:10.369Z,16.70
2018-11-11T13:31:44.473Z,16.70
2018-11-11T13:34:14.544Z,16.70
2018-11-11T13:36:44.139Z,16.80
2018-11-11T13:39:15.348Z,16.80
2018-11-11T13:41:47.780Z,16.60
2018-11-11T13:44:18.623Z,16.60
2018-11-11T13:46:48.390Z,16.70
2018-11-11T13:49:22.857Z,16.70
2018-11-11T13:51:58.941Z,17.00
2018-11-11T13:54:28.229Z,16.50
2018-11-11T13:56:57.661Z,16.60
2018-11-11T13:59:26.927Z,16.60
2018-11-11T14:01:57.112Z,16.40
2018-11-11T14:04:26.468Z,15.70
2018-11-11T14:06:56.097Z,15.10
2018-11-11T14:09:25.500Z,14.90
2018-11-11T14:11:57.713Z,15.20
2018-11-11T14:14:27.310Z,15.10
2018-11-11T14:16:56.777Z,15.00
2018-11-11T14:22:20.887Z,15.00
2018-11-11T14:24:54.353Z,14.70
2018-11-11T14:27:30.153Z,14.70
2018-11-11T14:30:05.822Z,14.60
2018-11-11T14:32:42.307Z,14.40
2018-11-11T14:35:17.172Z,14.30
2018-11-11T14:37:50.842Z,14.20
2018-11-11T14:40:23.287Z,14.10
2018-11-11T14:43:00.041Z,13.90
2018-11-11T14:45:29.209Z,13.80
2018-11-11T14:47:59.296Z,14.10
2018-11-11T14:50:29.274Z,14.00
2018-11-11T14:53:01.741Z,14.00
2018-11-11T14:55:31.584Z,13.90
2018-11-11T14:58:02.132Z,13.80
2018-11-11T15:00:33.926Z,13.70
2018-11-11T15:03:08.604Z,13.70
2018-11-11T15:05:38.363Z,13.80
2018-11-11T15:08:08.113Z,13.60
2018-11-11T15:10:37.572Z,13.60
2018-11-11T15:13:07.257Z,13.50
2018-11-11T15:15:37.734Z,13.30
2018-11-11T15:18:07.208Z,13.30
2018-11-11T15:20:37.430Z,13.10
2018-11-11T15:23:06.812Z,13.20
2018-11-11T15:25:36.306Z,13.20
2018-11-11T15:28:05.678Z,13.00
2018-11-11T15:30:36.043Z,13.00
2018-11-11T15:33:05.835Z,12.70
2018-11-11T15:35:35.384Z,12.60
2018-11-11T15:38:07.481Z,12.60
2018-11-11T15:40:40.067Z,12.60
2018-11-11T15:43:10.845Z,12.50
2018-11-11T15:45:41.117Z,12.50
2018-11-11T15:48:10.617Z,12.20
2018-11-11T15:50:41.004Z,12.00
2018-11-11T15:53:11.557Z,12.00
2018-11-11T15:55:42.036Z,11.90
2018-11-11T15:58:14.466Z,11.80
2018-11-11T16:00:44.981Z,11.60
2018-11-11T16:03:16.124Z,11.50
2018-11-11T16:05:45.523Z,11.10
2018-11-11T16:08:15.322Z,11.00
2018-11-11T16:10:44.689Z,11.20
2018-11-11T16:13:14.179Z,10.90
2018-11-11T16:15:43.849Z,10.80
2018-11-11T16:18:14.232Z,10.80
2018-11-11T16:20:43.458Z,10.40
2018-11-11T16:23:13.701Z,10.50
2018-11-11T16:25:43.671Z,10.70
2018-11-11T16:28:12.963Z,11.10
2018-11-11T16:30:43.240Z,11.20
2018-11-11T16:33:12.586Z,11.20
2018-11-11T16:35:48.682Z,11.20
2018-11-11T16:38:18.592Z,11.00
2018-11-11T16:40:48.771Z,10.70
2018-11-11T16:43:18.157Z,10.40
2018-11-11T16:45:47.872Z,9.90
2018-11-11T16:48:18.597Z,9.70
2018-11-11T16:50:47.699Z,9.60
2018-11-11T16:53:17.759Z,9.40
2018-11-11T16:55:46.847Z,9.30
2018-11-11T16:58:16.527Z,9.20
2018-11-11T17:00:46.151Z,8.90
2018-11-11T17:03:15.627Z,8.70
2018-11-11T17:05:47.204Z,8.50
2018-11-11T17:08:16.519Z,8.20
2018-11-11T17:10:46.029Z,8.00
2018-11-11T17:13:15.294Z,7.90
2018-11-11T17:15:44.857Z,7.90
2018-11-11T17:18:17.555Z,7.70
2018-11-11T17:20:47.092Z,7.70
2018-11-11T17:23:17.909Z,7.60
2018-11-11T17:25:47.613Z,7.50
2018-11-11T17:28:17.806Z,7.40
2018-11-11T17:30:47.061Z,7.20
2018-11-11T17:33:16.480Z,6.90
2018-11-11T17:35:45.938Z,6.70
2018-11-11T17:38:15.718Z,7.20
2018-11-11T17:40:45.001Z,7.30
2018-11-11T17:43:14.648Z,7.50
2018-11-11T17:45:44.047Z,7.90
2018-11-11T17:48:13.366Z,7.90
2018-11-11T17:50:42.988Z,7.50
2018-11-11T17:53:12.323Z,8.10
2018-11-11T17:55:41.708Z,7.90
2018-11-11T17:58:11.070Z,8.20
2018-11-11T18:00:40.623Z,7.50
2018-11-11T18:03:10.485Z,7.00
2018-11-11T18:05:41.098Z,7.00
2018-11-11T18:08:10.567Z,6.90
2018-11-11T18:10:39.881Z,7.00
2018-11-11T18:13:09.574Z,7.30
2018-11-11T18:15:38.962Z,6.60
2018-11-11T18:18:08.188Z,6.60
2018-11-11T18:20:38.471Z,6.30
2018-11-11T18:23:08.112Z,6.30
2018-11-11T18:25:37.328Z,5.90
2018-11-11T18:28:06.964Z,5.80
2018-11-11T18:30:36.553Z,5.90
2018-11-11T18:33:05.892Z,5.90
2018-11-11T18:35:35.160Z,5.90
2018-11-11T18:38:04.411Z,5.90
2018-11-11T18:40:34.045Z,5.90
2018-11-11T18:43:03.662Z,5.70
2018-11-11T18:45:32.743Z,5.60
2018-11-11T18:48:02.092Z,5.50
2018-11-11T18:50:32.712Z,5.50
2018-11-11T18:53:02.826Z,5.50
2018-11-11T18:55:32.191Z,5.50
2018-11-11T18:58:01.401Z,5.50
2018-11-11T19:00:31.833Z,5.50
2018-11-11T19:03:01.380Z,5.60
2018-11-11T19:05:31.032Z,5.70
2018-11-11T19:08:00.792Z,5.60
2018-11-11T19:10:33.319Z,5.40
2018-11-11T19:13:07.191Z,5.50
2018-11-11T19:15:36.616Z,5.60
2018-11-11T19:18:06.162Z,5.50
2018-11-11T19:20:35.889Z,5.50
2018-11-11T19:23:06.992Z,5.50
2018-11-11T19:25:36.456Z,5.50
2018-11-11T19:28:05.607Z,5.40
2018-11-11T19:30:34.897Z,5.40
2018-11-11T19:33:05.478Z,5.30
2018-11-11T19:35:34.958Z,5.30
2018-11-11T19:38:04.602Z,5.50
2018-11-11T19:40:35.171Z,5.80
2018-11-11T19:43:05.469Z,5.70
2018-11-11T19:45:35.776Z,5.50
2018-11-11T19:48:05.566Z,5.30
2018-11-11T19:50:35.911Z,5.30
2018-11-11T19:53:05.581Z,5.20
2018-11-11T19:55:35.340Z,5.20
2018-11-11T19:58:04.553Z,5.20
2018-11-11T20:00:34.157Z,5.20
2018-11-11T20:03:05.513Z,5.10
2018-11-11T20:05:35.268Z,5.10
2018-11-11T20:08:06.537Z,5.00
2018-11-11T20:10:35.734Z,4.70
2018-11-11T20:13:05.188Z,4.80
2018-11-11T20:15:34.973Z,4.90
2018-11-11T20:18:05.275Z,4.70
2018-11-11T20:20:39.039Z,4.70
2018-11-11T20:23:08.191Z,4.80
2018-11-11T20:25:37.090Z,4.80
2018-11-11T20:28:06.038Z,4.70
2018-11-11T20:30:36.875Z,4.60
2018-11-11T20:33:07.569Z,4.60
2018-11-11T20:35:36.871Z,4.50
2018-11-11T20:38:06.419Z,4.60
2018-11-11T20:40:36.827Z,4.60
2018-11-11T20:43:06.346Z,4.70
2018-11-11T20:45:35.399Z,4.70
2018-11-11T20:48:05.177Z,4.50
2018-11-11T20:50:37.603Z,4.50
2018-11-11T20:53:07.483Z,4.30
2018-11-11T20:55:37.083Z,4.40
2018-11-11T20:58:06.613Z,4.40
2018-11-11T21:00:37.581Z,4.30
2018-11-11T21:03:08.024Z,4.30
2018-11-11T21:05:37.509Z,4.30
2018-11-11T21:08:07.243Z,4.30
2018-11-11T21:10:36.682Z,4.50
2018-11-11T21:13:06.003Z,4.50
2018-11-11T21:15:35.509Z,4.60
2018-11-11T21:18:05.061Z,4.40
2018-11-11T21:20:34.383Z,4.20
2018-11-11T21:23:03.486Z,4.20
2018-11-11T21:25:33.195Z,4.10
2018-11-11T21:28:02.465Z,4.20
2018-11-11T21:30:32.415Z,4.20
2018-11-11T21:33:01.825Z,4.30
2018-11-11T21:35:31.057Z,4.40
2018-11-11T21:38:00.352Z,4.30
2018-11-11T21:40:29.737Z,4.10
2018-11-11T21:42:59.434Z,4.10
2018-11-11T21:45:29.225Z,4.10
2018-11-11T21:47:58.654Z,4.00
2018-11-11T21:50:28.552Z,4.10
2018-11-11T21:53:37.672Z,4.10
2018-11-11T21:56:07.195Z,4.10
2018-11-11T21:58:36.495Z,4.20
2018-11-11T22:01:06.725Z,4.30
2018-11-11T22:03:36.295Z,4.30
2018-11-11T22:06:05.744Z,4.20
2018-11-11T22:08:35.126Z,3.90
2018-11-11T22:11:04.427Z,3.80
2018-11-11T22:13:33.833Z,3.80
2018-11-11T22:16:03.601Z,3.80
2018-11-11T22:18:32.740Z,3.90
2018-11-11T22:21:02.057Z,4.00
2018-11-11T22:23:31.642Z,4.10
2018-11-11T22:26:01.108Z,4.00
2018-11-11T22:28:30.464Z,3.90
2018-11-11T22:30:59.604Z,3.90
2018-11-11T22:33:29.007Z,3.90
2018-11-11T22:35:58.652Z,4.10
2018-11-11T22:38:28.400Z,4.00
2018-11-11T22:40:58.834Z,3.90
2018-11-11T22:43:28.206Z,3.90
2018-11-11T22:45:57.796Z,3.90
2018-11-11T22:48:26.984Z,4.10
2018-11-11T22:50:56.375Z,4.10
2018-11-11T22:53:25.400Z,4.00
2018-11-11T22:55:54.668Z,4.10
2018-11-11T22:58:24.033Z,4.00
2018-11-11T23:00:58.750Z,3.80
2018-11-11T23:03:28.057Z,3.60
2018-11-11T23:05:57.241Z,3.50
2018-11-11T23:08:26.593Z,3.40
2018-11-11T23:10:55.625Z,3.20
2018-11-11T23:13:24.522Z,3.20
2018-11-11T23:15:54.039Z,3.30
2018-11-11T23:18:23.316Z,3.20
2018-11-11T23:20:52.614Z,3.20
2018-11-11T23:23:22.582Z,3.20
2018-11-11T23:25:51.777Z,3.10
2018-11-11T23:28:21.738Z,3.10
2018-11-11T23:30:50.929Z,3.00
2018-11-11T23:33:20.161Z,2.90
2018-11-11T23:35:49.440Z,3.00
2018-11-11T23:38:19.134Z,3.10
2018-11-11T23:40:48.643Z,3.10
2018-11-11T23:43:18.000Z,3.10
2018-11-11T23:45:47.301Z,2.90
2018-11-11T23:48:16.411Z,2.90
2018-11-11T23:50:45.710Z,3.00
2018-11-11T23:53:15.048Z,3.00
2018-11-11T23:55:44.714Z,3.10
2018-11-11T23:58:13.965Z,3.00
